Nea Filadelfia, Greece

8:34 AM EEST on September 05, 2015 (GMT +0300)
Nea Philadelphia | | Change Station
CLOSE
Current Station
Personal Weather Station
Location: Nea Philadephia - Athens, Attiki
Elevation: 387 ft
Nearby Weather Stations

Elev 387 ft 38.04 °N, 23.74 °E | Updated 2 days ago

Clear
Clear
87 °F
Feels Like 86 °F
N
1
Wind Variable Wind from NW
Gusts mph

Today
High -- | Low -- °F
--% Chance of Precip.
Yesterday
High -- | Low -- °F
Precip. -- in
6:57 AM 7:49 PM
Waning Gibbous, 52% visible
Pressure 29.92 in
Visibility -9999.0 miles
Clouds
Heat Index 86 °F
Dew Point 55 °F
Humidity 33%
Rainfall in
Snow Depth Not available.
UV Not available.
Pollen Not available.
Air Quality Not available.
Flu Activity Not available.
METAR LGEL 050520Z 00000KT CAVOK 25/13 Q1013
Pressure 29.92 in
Visibility -9999.0 miles
Clouds
Heat Index 86 °F
Dew Point 55 °F
Humidity 33%
Rainfall in
Snow Depth Not available.
UV Not available.
Pollen Not available.
Air Quality Not available.
Flu Activity Not available.
METAR LGEL 050520Z 00000KT CAVOK 25/13 Q1013

10-Day Weather Forecast

×

Almanac

Astronomy

Sep. 05, 2015 Rise Set
Actual Time
Civil Twilight
Nautical Twilight
Astronomical Twilight
Moon
Length of Visible Light
Length of Day
Tomorrow will be .
, % of the Moon is Illuminated

Today's Extremes

Country Highs Country Lows

Community

WunderPhotos

Upload Photos

1,852,426 photos uploaded!

WunderBlogs® & News

Nearby

Air Quality

  Air Quality AQ Index Pollutant
Not available.

Snow Depth

Station Depth Elevation

Earthquake Activity

City Distance Mag. Time & Date
Minimum magnitude displayed is 2.5.

Coastal Water Temperatures

Place Temperature

Stations

Nearby Weather Stations

Station Location Temp. Windchill Dew Point Humidity Wind Precip. Elev Updated Type